Terminal Aerodrome Forecast
Issued by NWS Jackson, KY

Home | Current Version | Previous Version | Text Only | Print | Product List | Glossary On
Versions: 1 2 3 4 5 6 7 8 9 10 11 12 13 14 15 16
000
FTUS43 KJKL 140500 RRA
TAFJKL
TAF
KJKL 140543Z 1406/1506 VRB05KT P6SM VCTS SCT040CB SCT250
     FM141200 VRB03KT P6SM SHRA VCTS BKN035CB BKN120
     FM141700 24005KT 4SM SHRA BR VCTS BKN035CB BKN120=

USA.gov is the U.S. government's official web portal to all federal, state and local government web resources and services.